sensor_id;sensor_type;location;lat;lon;timestamp;temperature;humidity
2112;DHT22;1062;52.538;13.400;2023-02-28T00:00:21;1.70;99.90
2112;DHT22;1062;52.538;13.400;2023-02-28T00:02:47;1.70;99.90
2112;DHT22;1062;52.538;13.400;2023-02-28T00:05:18;1.80;99.90
2112;DHT22;1062;52.538;13.400;2023-02-28T00:07:44;1.80;99.90
2112;DHT22;1062;52.538;13.400;2023-02-28T00:10:11;1.80;99.90
2112;DHT22;1062;52.538;13.400;2023-02-28T00:12:37;1.80;99.90
2112;DHT22;1062;52.538;13.400;2023-02-28T00:15:09;1.90;99.90
2112;DHT22;1062;52.538;13.400;2023-02-28T00:17:35;1.90;99.90
2112;DHT22;1062;52.538;13.400;2023-02-28T00:20:00;1.90;99.90
2112;DHT22;1062;52.538;13.400;2023-02-28T00:22:29;1.90;99.90
2112;DHT22;1062;52.538;13.400;2023-02-28T00:24:55;1.90;99.90
2112;DHT22;1062;52.538;13.400;2023-02-28T00:27:21;1.90;99.90
2112;DHT22;1062;52.538;13.400;2023-02-28T00:29:47;1.90;99.90
2112;DHT22;1062;52.538;13.400;2023-02-28T00:32:12;2.00;99.90
2112;DHT22;1062;52.538;13.400;2023-02-28T00:34:38;2.00;99.90
2112;DHT22;1062;52.538;13.400;2023-02-28T00:37:05;2.00;99.90
2112;DHT22;1062;52.538;13.400;2023-02-28T00:39:32;2.00;99.90
2112;DHT22;1062;52.538;13.400;2023-02-28T00:41:58;2.00;99.90
2112;DHT22;1062;52.538;13.400;2023-02-28T00:44:23;2.00;99.90
2112;DHT22;1062;52.538;13.400;2023-02-28T00:46:49;2.00;99.90
2112;DHT22;1062;52.538;13.400;2023-02-28T00:49:15;2.00;99.90
2112;DHT22;1062;52.538;13.400;2023-02-28T00:51:40;2.00;99.90
2112;DHT22;1062;52.538;13.400;2023-02-28T00:54:06;2.00;99.90
2112;DHT22;1062;52.538;13.400;2023-02-28T00:56:31;2.10;99.90
2112;DHT22;1062;52.538;13.400;2023-02-28T00:58:57;2.10;99.90
2112;DHT22;1062;52.538;13.400;2023-02-28T01:01:23;2.10;99.90
2112;DHT22;1062;52.538;13.400;2023-02-28T01:03:48;2.10;99.90
2112;DHT22;1062;52.538;13.400;2023-02-28T01:06:14;2.00;99.90
2112;DHT22;1062;52.538;13.400;2023-02-28T01:08:39;2.00;99.90
2112;DHT22;1062;52.538;13.400;2023-02-28T01:11:12;2.00;99.90
2112;DHT22;1062;52.538;13.400;2023-02-28T01:13:40;2.00;99.90
2112;DHT22;1062;52.538;13.400;2023-02-28T01:16:06;2.00;99.90
2112;DHT22;1062;52.538;13.400;2023-02-28T01:18:32;2.00;99.90
2112;DHT22;1062;52.538;13.400;2023-02-28T01:20:57;1.90;99.90
2112;DHT22;1062;52.538;13.400;2023-02-28T01:23:23;1.80;99.90
2112;DHT22;1062;52.538;13.400;2023-02-28T01:25:50;1.80;99.90
2112;DHT22;1062;52.538;13.400;2023-02-28T01:28:16;1.70;99.90
2112;DHT22;1062;52.538;13.400;2023-02-28T01:30:41;1.70;99.90
2112;DHT22;1062;52.538;13.400;2023-02-28T01:33:07;1.70;99.90
2112;DHT22;1062;52.538;13.400;2023-02-28T01:35:33;1.60;99.90
2112;DHT22;1062;52.538;13.400;2023-02-28T01:37:59;1.60;99.90
2112;DHT22;1062;52.538;13.400;2023-02-28T01:40:25;1.60;99.90
2112;DHT22;1062;52.538;13.400;2023-02-28T01:42:50;1.60;99.90
2112;DHT22;1062;52.538;13.400;2023-02-28T01:45:23;1.60;99.90
2112;DHT22;1062;52.538;13.400;2023-02-28T01:47:53;1.60;99.90
2112;DHT22;1062;52.538;13.400;2023-02-28T01:50:23;1.60;99.90
2112;DHT22;1062;52.538;13.400;2023-02-28T01:52:52;1.60;99.90
2112;DHT22;1062;52.538;13.400;2023-02-28T01:55:20;1.60;99.90
2112;DHT22;1062;52.538;13.400;2023-02-28T01:57:52;1.50;99.90
2112;DHT22;1062;52.538;13.400;2023-02-28T02:00:22;1.50;99.90
2112;DHT22;1062;52.538;13.400;2023-02-28T02:02:51;1.40;99.90
2112;DHT22;1062;52.538;13.400;2023-02-28T02:05:23;1.40;99.90
2112;DHT22;1062;52.538;13.400;2023-02-28T02:07:53;1.30;99.90
2112;DHT22;1062;52.538;13.400;2023-02-28T02:10:24;1.30;99.90
2112;DHT22;1062;52.538;13.400;2023-02-28T02:35:32;0.70;99.90
2112;DHT22;1062;52.538;13.400;2023-02-28T02:40:58;0.40;99.90
2112;DHT22;1062;52.538;13.400;2023-02-28T02:43:33;0.50;99.90
2112;DHT22;1062;52.538;13.400;2023-02-28T02:46:06;0.40;99.90
2112;DHT22;1062;52.538;13.400;2023-02-28T02:48:36;0.30;99.90
2112;DHT22;1062;52.538;13.400;2023-02-28T02:51:10;0.30;99.90
2112;DHT22;1062;52.538;13.400;2023-02-28T02:53:44;0.30;99.90
2112;DHT22;1062;52.538;13.400;2023-02-28T02:56:12;0.30;99.90
2112;DHT22;1062;52.538;13.400;2023-02-28T02:58:42;0.30;99.90
2112;DHT22;1062;52.538;13.400;2023-02-28T03:01:11;0.30;99.90
2112;DHT22;1062;52.538;13.400;2023-02-28T03:03:38;0.20;99.90
2112;DHT22;1062;52.538;13.400;2023-02-28T03:06:04;0.20;99.90
2112;DHT22;1062;52.538;13.400;2023-02-28T03:08:35;0.20;99.90
2112;DHT22;1062;52.538;13.400;2023-02-28T03:11:04;0.10;99.90
2112;DHT22;1062;52.538;13.400;2023-02-28T03:18:59;0.00;99.90
2112;DHT22;1062;52.538;13.400;2023-02-28T03:24:18;0.00;99.90
2112;DHT22;1062;52.538;13.400;2023-02-28T03:26:53;0.00;99.90
2112;DHT22;1062;52.538;13.400;2023-02-28T03:29:30;0.00;99.90
2112;DHT22;1062;52.538;13.400;2023-02-28T03:32:05;0.00;99.90
2112;DHT22;1062;52.538;13.400;2023-02-28T03:34:47;0.00;99.90
2112;DHT22;1062;52.538;13.400;2023-02-28T03:37:18;-0.10;99.90
2112;DHT22;1062;52.538;13.400;2023-02-28T03:40:03;-0.20;99.90
2112;DHT22;1062;52.538;13.400;2023-02-28T03:42:35;-0.30;99.90
2112;DHT22;1062;52.538;13.400;2023-02-28T03:45:05;-0.30;99.90
2112;DHT22;1062;52.538;13.400;2023-02-28T03:47:40;-0.40;99.90
2112;DHT22;1062;52.538;13.400;2023-02-28T03:50:24;-0.40;99.90
2112;DHT22;1062;52.538;13.400;2023-02-28T03:53:01;-0.50;99.90
2112;DHT22;1062;52.538;13.400;2023-02-28T03:55:35;-0.60;99.90
2112;DHT22;1062;52.538;13.400;2023-02-28T03:58:19;-0.50;99.90
2112;DHT22;1062;52.538;13.400;2023-02-28T04:00:50;-0.50;99.90
2112;DHT22;1062;52.538;13.400;2023-02-28T04:03:19;-0.30;99.90
2112;DHT22;1062;52.538;13.400;2023-02-28T04:05:50;-0.40;99.90
2112;DHT22;1062;52.538;13.400;2023-02-28T04:08:17;-0.40;99.90
2112;DHT22;1062;52.538;13.400;2023-02-28T04:10:47;-0.50;99.90
2112;DHT22;1062;52.538;13.400;2023-02-28T04:13:14;-0.60;99.90
2112;DHT22;1062;52.538;13.400;2023-02-28T04:15:40;-0.70;99.90
2112;DHT22;1062;52.538;13.400;2023-02-28T04:18:06;-0.80;99.90
2112;DHT22;1062;52.538;13.400;2023-02-28T04:20:32;-0.80;99.90
2112;DHT22;1062;52.538;13.400;2023-02-28T04:22:57;-0.80;99.90
2112;DHT22;1062;52.538;13.400;2023-02-28T04:25:23;-0.80;99.90
2112;DHT22;1062;52.538;13.400;2023-02-28T04:27:48;-0.90;99.90
2112;DHT22;1062;52.538;13.400;2023-02-28T04:30:14;-0.90;99.90
2112;DHT22;1062;52.538;13.400;2023-02-28T04:32:40;-0.80;99.90
2112;DHT22;1062;52.538;13.400;2023-02-28T04:35:06;-0.90;99.90
2112;DHT22;1062;52.538;13.400;2023-02-28T04:37:31;-0.90;99.90
2112;DHT22;1062;52.538;13.400;2023-02-28T04:40:00;-0.90;99.90
2112;DHT22;1062;52.538;13.400;2023-02-28T04:42:26;-0.90;99.90
2112;DHT22;1062;52.538;13.400;2023-02-28T04:44:52;-1.00;99.90
2112;DHT22;1062;52.538;13.400;2023-02-28T04:47:17;-1.00;99.90
2112;DHT22;1062;52.538;13.400;2023-02-28T04:49:43;-1.00;99.90
2112;DHT22;1062;52.538;13.400;2023-02-28T04:52:08;-1.00;99.90
2112;DHT22;1062;52.538;13.400;2023-02-28T04:54:35;-1.00;99.90
2112;DHT22;1062;52.538;13.400;2023-02-28T04:57:01;-1.10;99.90
2112;DHT22;1062;52.538;13.400;2023-02-28T04:59:27;-1.10;99.90
2112;DHT22;1062;52.538;13.400;2023-02-28T05:01:52;-1.10;99.90
2112;DHT22;1062;52.538;13.400;2023-02-28T05:04:18;-1.00;99.90
2112;DHT22;1062;52.538;13.400;2023-02-28T05:06:44;-1.00;99.90
2112;DHT22;1062;52.538;13.400;2023-02-28T05:09:09;-1.00;99.90
2112;DHT22;1062;52.538;13.400;2023-02-28T05:11:38;-0.90;99.90
2112;DHT22;1062;52.538;13.400;2023-02-28T05:14:09;-0.90;99.90
2112;DHT22;1062;52.538;13.400;2023-02-28T05:16:35;-0.90;99.90
2112;DHT22;1062;52.538;13.400;2023-02-28T05:19:00;-0.90;99.90
2112;DHT22;1062;52.538;13.400;2023-02-28T05:23:54;-0.80;99.90
2112;DHT22;1062;52.538;13.400;2023-02-28T05:26:20;-0.80;99.90
2112;DHT22;1062;52.538;13.400;2023-02-28T05:28:46;-0.70;99.90
2112;DHT22;1062;52.538;13.400;2023-02-28T05:31:11;-0.70;99.90
2112;DHT22;1062;52.538;13.400;2023-02-28T05:33:37;-0.80;99.90
2112;DHT22;1062;52.538;13.400;2023-02-28T05:36:03;-0.90;99.90
2112;DHT22;1062;52.538;13.400;2023-02-28T05:38:29;-1.00;99.90
2112;DHT22;1062;52.538;13.400;2023-02-28T05:40:55;-0.90;99.90
2112;DHT22;1062;52.538;13.400;2023-02-28T05:43:21;-1.00;99.90
2112;DHT22;1062;52.538;13.400;2023-02-28T05:45:47;-1.10;99.90
2112;DHT22;1062;52.538;13.400;2023-02-28T05:48:12;-1.20;99.90
2112;DHT22;1062;52.538;13.400;2023-02-28T05:50:38;-1.10;99.90
2112;DHT22;1062;52.538;13.400;2023-02-28T05:53:04;-1.20;99.90
2112;DHT22;1062;52.538;13.400;2023-02-28T05:55:30;-1.20;99.90
2112;DHT22;1062;52.538;13.400;2023-02-28T05:57:55;-1.30;99.90
2112;DHT22;1062;52.538;13.400;2023-02-28T06:00:22;-1.30;99.90
2112;DHT22;1062;52.538;13.400;2023-02-28T06:02:48;-1.30;99.90
2112;DHT22;1062;52.538;13.400;2023-02-28T06:05:17;-1.20;99.90
2112;DHT22;1062;52.538;13.400;2023-02-28T06:07:43;-1.20;99.90
2112;DHT22;1062;52.538;13.400;2023-02-28T06:10:10;-1.20;99.90
2112;DHT22;1062;52.538;13.400;2023-02-28T06:12:37;-1.20;99.90
2112;DHT22;1062;52.538;13.400;2023-02-28T06:15:03;-1.20;99.90
2112;DHT22;1062;52.538;13.400;2023-02-28T06:17:28;-1.20;99.90
2112;DHT22;1062;52.538;13.400;2023-02-28T06:19:54;-1.10;99.90
2112;DHT22;1062;52.538;13.400;2023-02-28T06:22:20;-1.10;99.90
2112;DHT22;1062;52.538;13.400;2023-02-28T06:24:46;-1.10;99.90
2112;DHT22;1062;52.538;13.400;2023-02-28T06:27:12;-1.10;99.90
2112;DHT22;1062;52.538;13.400;2023-02-28T06:29:38;-1.10;99.90
2112;DHT22;1062;52.538;13.400;2023-02-28T06:32:05;-1.10;99.90
2112;DHT22;1062;52.538;13.400;2023-02-28T06:34:31;-1.00;99.90
2112;DHT22;1062;52.538;13.400;2023-02-28T06:36:59;-0.80;99.90
2112;DHT22;1062;52.538;13.400;2023-02-28T06:39:30;-0.70;99.90
2112;DHT22;1062;52.538;13.400;2023-02-28T06:41:57;-0.60;99.90
2112;DHT22;1062;52.538;13.400;2023-02-28T06:44:23;-0.50;99.90
2112;DHT22;1062;52.538;13.400;2023-02-28T06:46:49;-0.40;99.90
2112;DHT22;1062;52.538;13.400;2023-02-28T06:49:15;-0.30;99.90
2112;DHT22;1062;52.538;13.400;2023-02-28T06:51:42;-0.30;99.90
2112;DHT22;1062;52.538;13.400;2023-02-28T06:54:10;-0.10;99.90
2112;DHT22;1062;52.538;13.400;2023-02-28T06:56:36;0.10;99.90
2112;DHT22;1062;52.538;13.400;2023-02-28T06:59:02;0.20;99.90
2112;DHT22;1062;52.538;13.400;2023-02-28T07:01:29;0.40;99.90
2112;DHT22;1062;52.538;13.400;2023-02-28T07:03:54;0.60;99.90
2112;DHT22;1062;52.538;13.400;2023-02-28T07:06:23;0.80;99.90
2112;DHT22;1062;52.538;13.400;2023-02-28T07:08:50;1.20;99.90
2112;DHT22;1062;52.538;13.400;2023-02-28T07:11:16;1.40;99.90
2112;DHT22;1062;52.538;13.400;2023-02-28T07:13:41;1.60;99.90
2112;DHT22;1062;52.538;13.400;2023-02-28T07:16:09;1.80;99.90
2112;DHT22;1062;52.538;13.400;2023-02-28T07:18:36;2.10;99.90
2112;DHT22;1062;52.538;13.400;2023-02-28T07:21:07;2.30;99.90
2112;DHT22;1062;52.538;13.400;2023-02-28T07:23:33;2.50;99.90
2112;DHT22;1062;52.538;13.400;2023-02-28T07:25:59;3.30;99.90
2112;DHT22;1062;52.538;13.400;2023-02-28T07:28:25;4.30;99.90
2112;DHT22;1062;52.538;13.400;2023-02-28T07:30:50;4.70;99.90
2112;DHT22;1062;52.538;13.400;2023-02-28T07:33:17;4.30;99.90
2112;DHT22;1062;52.538;13.400;2023-02-28T07:35:43;3.90;99.90
2112;DHT22;1062;52.538;13.400;2023-02-28T07:38:09;3.80;99.90
2112;DHT22;1062;52.538;13.400;2023-02-28T07:40:35;3.80;99.90
2112;DHT22;1062;52.538;13.400;2023-02-28T07:43:02;4.00;99.90
2112;DHT22;1062;52.538;13.400;2023-02-28T07:45:29;4.30;99.90
2112;DHT22;1062;52.538;13.400;2023-02-28T07:47:55;4.50;99.90
2112;DHT22;1062;52.538;13.400;2023-02-28T07:50:21;4.90;99.90
2112;DHT22;1062;52.538;13.400;2023-02-28T07:52:47;5.10;99.90
2112;DHT22;1062;52.538;13.400;2023-02-28T07:55:12;5.20;99.90
2112;DHT22;1062;52.538;13.400;2023-02-28T07:57:40;5.80;99.90
2112;DHT22;1062;52.538;13.400;2023-02-28T08:00:08;6.30;99.90
2112;DHT22;1062;52.538;13.400;2023-02-28T08:02:38;7.30;99.90
2112;DHT22;1062;52.538;13.400;2023-02-28T08:05:04;7.50;99.90
2112;DHT22;1062;52.538;13.400;2023-02-28T08:07:30;8.20;99.90
2112;DHT22;1062;52.538;13.400;2023-02-28T08:09:56;8.10;99.90
2112;DHT22;1062;52.538;13.400;2023-02-28T08:12:22;7.50;99.90
2112;DHT22;1062;52.538;13.400;2023-02-28T08:14:47;9.50;99.90
2112;DHT22;1062;52.538;13.400;2023-02-28T08:17:13;10.10;98.00
2112;DHT22;1062;52.538;13.400;2023-02-28T08:19:39;8.90;97.10
2112;DHT22;1062;52.538;13.400;2023-02-28T08:22:04;10.50;95.10
2112;DHT22;1062;52.538;13.400;2023-02-28T08:24:30;10.50;93.40
2112;DHT22;1062;52.538;13.400;2023-02-28T08:26:56;11.40;88.50
2112;DHT22;1062;52.538;13.400;2023-02-28T08:29:22;10.30;83.30
2112;DHT22;1062;52.538;13.400;2023-02-28T08:31:48;10.60;85.20
2112;DHT22;1062;52.538;13.400;2023-02-28T08:34:15;10.00;85.50
2112;DHT22;1062;52.538;13.400;2023-02-28T08:36:41;12.00;86.10
2112;DHT22;1062;52.538;13.400;2023-02-28T08:39:09;13.90;72.40
2112;DHT22;1062;52.538;13.400;2023-02-28T08:41:35;13.90;69.70
2112;DHT22;1062;52.538;13.400;2023-02-28T08:44:02;14.70;67.40
2112;DHT22;1062;52.538;13.400;2023-02-28T08:46:27;15.20;62.20
2112;DHT22;1062;52.538;13.400;2023-02-28T08:48:54;13.30;60.30
2112;DHT22;1062;52.538;13.400;2023-02-28T08:51:20;14.10;58.90
2112;DHT22;1062;52.538;13.400;2023-02-28T08:53:52;14.50;59.60
2112;DHT22;1062;52.538;13.400;2023-02-28T08:56:19;12.90;59.10
2112;DHT22;1062;52.538;13.400;2023-02-28T08:58:47;11.00;60.00
2112;DHT22;1062;52.538;13.400;2023-02-28T09:01:18;11.20;60.90
2112;DHT22;1062;52.538;13.400;2023-02-28T09:03:45;12.00;58.20
2112;DHT22;1062;52.538;13.400;2023-02-28T09:06:12;12.20;57.90
2112;DHT22;1062;52.538;13.400;2023-02-28T09:08:38;12.80;58.50
2112;DHT22;1062;52.538;13.400;2023-02-28T09:11:04;13.90;57.10
2112;DHT22;1062;52.538;13.400;2023-02-28T09:13:30;14.50;54.90
2112;DHT22;1062;52.538;13.400;2023-02-28T09:15:58;13.70;54.30
2112;DHT22;1062;52.538;13.400;2023-02-28T09:18:24;13.40;54.40
2112;DHT22;1062;52.538;13.400;2023-02-28T09:20:50;13.70;52.60
2112;DHT22;1062;52.538;13.400;2023-02-28T09:23:16;12.20;56.50
2112;DHT22;1062;52.538;13.400;2023-02-28T09:25:50;11.60;59.00
2112;DHT22;1062;52.538;13.400;2023-02-28T09:28:16;11.60;58.90
2112;DHT22;1062;52.538;13.400;2023-02-28T09:30:45;13.50;57.20
2112;DHT22;1062;52.538;13.400;2023-02-28T09:33:11;12.60;56.90
2112;DHT22;1062;52.538;13.400;2023-02-28T09:35:37;12.90;54.90
2112;DHT22;1062;52.538;13.400;2023-02-28T09:38:03;10.00;55.50
2112;DHT22;1062;52.538;13.400;2023-02-28T09:40:30;10.50;57.60
2112;DHT22;1062;52.538;13.400;2023-02-28T09:42:57;10.50;57.50
2112;DHT22;1062;52.538;13.400;2023-02-28T09:45:29;10.30;57.30
2112;DHT22;1062;52.538;13.400;2023-02-28T09:47:59;10.70;57.90
2112;DHT22;1062;52.538;13.400;2023-02-28T09:53:21;10.30;57.00
2112;DHT22;1062;52.538;13.400;2023-02-28T10:04:12;8.50;63.50
2112;DHT22;1062;52.538;13.400;2023-02-28T10:06:46;7.70;63.80
2112;DHT22;1062;52.538;13.400;2023-02-28T10:09:24;7.70;63.80
2112;DHT22;1062;52.538;13.400;2023-02-28T10:11:52;7.20;65.10
2112;DHT22;1062;52.538;13.400;2023-02-28T10:14:22;7.00;66.20
2112;DHT22;1062;52.538;13.400;2023-02-28T10:16:55;6.40;66.60
2112;DHT22;1062;52.538;13.400;2023-02-28T10:22:00;5.90;69.00
2112;DHT22;1062;52.538;13.400;2023-02-28T10:24:46;6.00;69.60
2112;DHT22;1062;52.538;13.400;2023-02-28T10:27:24;5.80;69.50
2112;DHT22;1062;52.538;13.400;2023-02-28T10:29:52;5.30;70.20
2112;DHT22;1062;52.538;13.400;2023-02-28T10:32:21;5.10;73.40
2112;DHT22;1062;52.538;13.400;2023-02-28T10:37:46;5.20;74.20
2112;DHT22;1062;52.538;13.400;2023-02-28T10:42:58;5.30;73.40
2112;DHT22;1062;52.538;13.400;2023-02-28T10:45:25;5.20;74.70
2112;DHT22;1062;52.538;13.400;2023-02-28T10:47:58;5.30;74.50
2112;DHT22;1062;52.538;13.400;2023-02-28T10:55:44;5.00;74.40
2112;DHT22;1062;52.538;13.400;2023-02-28T10:58:27;4.90;74.90
2112;DHT22;1062;52.538;13.400;2023-02-28T11:00:53;4.90;75.60
2112;DHT22;1062;52.538;13.400;2023-02-28T11:03:31;5.00;75.20
2112;DHT22;1062;52.538;13.400;2023-02-28T11:05:58;5.00;75.50
2112;DHT22;1062;52.538;13.400;2023-02-28T11:08:24;4.90;76.00
2112;DHT22;1062;52.538;13.400;2023-02-28T11:11:00;4.90;75.70
2112;DHT22;1062;52.538;13.400;2023-02-28T11:13:29;4.90;76.10
2112;DHT22;1062;52.538;13.400;2023-02-28T11:15:59;4.90;76.30
2112;DHT22;1062;52.538;13.400;2023-02-28T11:18:41;4.90;76.70
2112;DHT22;1062;52.538;13.400;2023-02-28T11:21:08;4.90;76.60
2112;DHT22;1062;52.538;13.400;2023-02-28T11:23:36;4.90;77.40
2112;DHT22;1062;52.538;13.400;2023-02-28T11:26:05;5.00;77.60
2112;DHT22;1062;52.538;13.400;2023-02-28T11:28:40;4.90;76.80
2112;DHT22;1062;52.538;13.400;2023-02-28T11:31:17;4.90;77.80
2112;DHT22;1062;52.538;13.400;2023-02-28T11:33:51;5.00;77.60
2112;DHT22;1062;52.538;13.400;2023-02-28T11:36:24;5.10;80.10
2112;DHT22;1062;52.538;13.400;2023-02-28T11:38:54;5.10;77.30
2112;DHT22;1062;52.538;13.400;2023-02-28T11:41:40;5.00;77.50
2112;DHT22;1062;52.538;13.400;2023-02-28T11:46:50;5.10;77.80
2112;DHT22;1062;52.538;13.400;2023-02-28T11:52:29;5.00;77.20
2112;DHT22;1062;52.538;13.400;2023-02-28T11:58:11;5.10;78.50
2112;DHT22;1062;52.538;13.400;2023-02-28T12:03:31;5.10;77.20
2112;DHT22;1062;52.538;13.400;2023-02-28T12:09:17;5.10;77.00
2112;DHT22;1062;52.538;13.400;2023-02-28T12:11:55;5.20;77.90
2112;DHT22;1062;52.538;13.400;2023-02-28T12:17:17;5.30;77.00
2112;DHT22;1062;52.538;13.400;2023-02-28T12:23:06;5.30;78.40
2112;DHT22;1062;52.538;13.400;2023-02-28T12:26:04;5.30;77.60
2112;DHT22;1062;52.538;13.400;2023-02-28T12:28:40;5.30;78.10
2112;DHT22;1062;52.538;13.400;2023-02-28T12:31:28;5.40;78.40
2112;DHT22;1062;52.538;13.400;2023-02-28T12:34:01;5.50;78.60
2112;DHT22;1062;52.538;13.400;2023-02-28T12:36:28;5.40;77.80
2112;DHT22;1062;52.538;13.400;2023-02-28T12:39:06;5.30;77.60
2112;DHT22;1062;52.538;13.400;2023-02-28T12:41:46;5.40;78.10
2112;DHT22;1062;52.538;13.400;2023-02-28T12:45:07;5.50;78.00
2112;DHT22;1062;52.538;13.400;2023-02-28T12:47:13;5.50;77.70
2112;DHT22;1062;52.538;13.400;2023-02-28T12:49:46;5.60;77.00
2112;DHT22;1062;52.538;13.400;2023-02-28T12:52:19;5.50;76.60
2112;DHT22;1062;52.538;13.400;2023-02-28T12:57:51;5.60;76.00
2112;DHT22;1062;52.538;13.400;2023-02-28T13:00:21;5.60;75.70
2112;DHT22;1062;52.538;13.400;2023-02-28T13:11:02;5.70;76.00
2112;DHT22;1062;52.538;13.400;2023-02-28T13:13:29;5.80;76.10
2112;DHT22;1062;52.538;13.400;2023-02-28T13:21:01;6.00;77.10
2112;DHT22;1062;52.538;13.400;2023-02-28T13:23:41;5.90;77.50
2112;DHT22;1062;52.538;13.400;2023-02-28T13:26:22;6.10;78.60
2112;DHT22;1062;52.538;13.400;2023-02-28T13:31:15;6.00;77.80
2112;DHT22;1062;52.538;13.400;2023-02-28T13:38:51;5.90;78.30
2112;DHT22;1062;52.538;13.400;2023-02-28T13:46:32;5.90;80.10
2112;DHT22;1062;52.538;13.400;2023-02-28T13:49:27;6.10;80.20
2112;DHT22;1062;52.538;13.400;2023-02-28T13:52:07;6.20;78.10
2112;DHT22;1062;52.538;13.400;2023-02-28T14:05:19;6.10;77.10
2112;DHT22;1062;52.538;13.400;2023-02-28T14:07:56;6.10;75.10
2112;DHT22;1062;52.538;13.400;2023-02-28T14:10:29;6.10;76.10
2112;DHT22;1062;52.538;13.400;2023-02-28T14:16:04;6.00;75.70
2112;DHT22;1062;52.538;13.400;2023-02-28T14:18:32;5.90;76.30
2112;DHT22;1062;52.538;13.400;2023-02-28T14:21:13;5.90;76.80
2112;DHT22;1062;52.538;13.400;2023-02-28T14:24:23;5.80;76.50
2112;DHT22;1062;52.538;13.400;2023-02-28T14:32:33;5.90;75.30
2112;DHT22;1062;52.538;13.400;2023-02-28T14:35:10;5.90;75.30
2112;DHT22;1062;52.538;13.400;2023-02-28T14:37:39;5.80;74.80
2112;DHT22;1062;52.538;13.400;2023-02-28T14:40:17;5.80;76.00
2112;DHT22;1062;52.538;13.400;2023-02-28T14:42:55;5.80;76.20
2112;DHT22;1062;52.538;13.400;2023-02-28T14:45:22;5.80;76.10
2112;DHT22;1062;52.538;13.400;2023-02-28T14:47:50;5.80;76.30
2112;DHT22;1062;52.538;13.400;2023-02-28T14:50:26;5.80;76.50
2112;DHT22;1062;52.538;13.400;2023-02-28T14:52:53;5.80;76.40
2112;DHT22;1062;52.538;13.400;2023-02-28T14:55:24;5.80;77.60
2112;DHT22;1062;52.538;13.400;2023-02-28T14:57:53;5.80;79.60
2112;DHT22;1062;52.538;13.400;2023-02-28T15:00:49;5.80;80.50
2112;DHT22;1062;52.538;13.400;2023-02-28T15:06:02;5.60;81.50
2112;DHT22;1062;52.538;13.400;2023-02-28T15:08:29;5.60;82.50
2112;DHT22;1062;52.538;13.400;2023-02-28T15:11:11;5.60;82.10
2112;DHT22;1062;52.538;13.400;2023-02-28T15:13:46;5.50;82.40
2112;DHT22;1062;52.538;13.400;2023-02-28T15:16:17;5.50;82.40
2112;DHT22;1062;52.538;13.400;2023-02-28T15:18:49;5.50;83.00
2112;DHT22;1062;52.538;13.400;2023-02-28T15:24:06;5.50;83.30
2112;DHT22;1062;52.538;13.400;2023-02-28T15:26:36;5.50;84.10
2112;DHT22;1062;52.538;13.400;2023-02-28T15:29:13;5.50;84.40
2112;DHT22;1062;52.538;13.400;2023-02-28T15:31:44;5.40;83.80
2112;DHT22;1062;52.538;13.400;2023-02-28T15:34:20;5.40;82.20
2112;DHT22;1062;52.538;13.400;2023-02-28T15:36:46;5.30;82.20
2112;DHT22;1062;52.538;13.400;2023-02-28T15:39:24;5.30;82.50
2112;DHT22;1062;52.538;13.400;2023-02-28T15:41:50;5.30;83.40
2112;DHT22;1062;52.538;13.400;2023-02-28T15:47:02;5.20;84.40
2112;DHT22;1062;52.538;13.400;2023-02-28T15:49:45;5.20;84.70
2112;DHT22;1062;52.538;13.400;2023-02-28T15:52:27;5.10;85.30
2112;DHT22;1062;52.538;13.400;2023-02-28T15:54:53;5.10;86.20
2112;DHT22;1062;52.538;13.400;2023-02-28T15:57:23;5.10;86.60
2112;DHT22;1062;52.538;13.400;2023-02-28T15:59:58;5.00;87.00
2112;DHT22;1062;52.538;13.400;2023-02-28T16:02:36;5.00;86.80
2112;DHT22;1062;52.538;13.400;2023-02-28T16:07:31;4.90;86.90
2112;DHT22;1062;52.538;13.400;2023-02-28T16:09:57;4.90;86.90
2112;DHT22;1062;52.538;13.400;2023-02-28T16:12:27;4.80;87.50
2112;DHT22;1062;52.538;13.400;2023-02-28T16:14:54;4.70;87.60
2112;DHT22;1062;52.538;13.400;2023-02-28T16:17:26;4.70;88.60
2112;DHT22;1062;52.538;13.400;2023-02-28T16:19:53;4.70;89.30
2112;DHT22;1062;52.538;13.400;2023-02-28T16:22:19;4.60;89.80
2112;DHT22;1062;52.538;13.400;2023-02-28T16:24:45;4.50;90.20
2112;DHT22;1062;52.538;13.400;2023-02-28T16:27:22;4.50;90.20
2112;DHT22;1062;52.538;13.400;2023-02-28T16:29:50;4.40;90.30
2112;DHT22;1062;52.538;13.400;2023-02-28T16:32:16;4.30;90.30
2112;DHT22;1062;52.538;13.400;2023-02-28T16:34:43;4.30;90.20
2112;DHT22;1062;52.538;13.400;2023-02-28T16:37:14;4.20;90.50
2112;DHT22;1062;52.538;13.400;2023-02-28T16:39:40;4.20;90.70
2112;DHT22;1062;52.538;13.400;2023-02-28T16:42:08;4.10;90.50
2112;DHT22;1062;52.538;13.400;2023-02-28T16:44:36;4.00;90.80
2112;DHT22;1062;52.538;13.400;2023-02-28T16:47:02;4.00;90.80
2112;DHT22;1062;52.538;13.400;2023-02-28T16:49:28;3.90;90.80
2112;DHT22;1062;52.538;13.400;2023-02-28T16:51:54;3.90;90.80
2112;DHT22;1062;52.538;13.400;2023-02-28T16:54:20;3.80;90.60
2112;DHT22;1062;52.538;13.400;2023-02-28T16:56:47;3.80;90.70
2112;DHT22;1062;52.538;13.400;2023-02-28T16:59:13;3.70;90.60
2112;DHT22;1062;52.538;13.400;2023-02-28T17:01:40;3.70;90.80
2112;DHT22;1062;52.538;13.400;2023-02-28T17:04:05;3.60;91.10
2112;DHT22;1062;52.538;13.400;2023-02-28T17:06:31;3.60;91.30
2112;DHT22;1062;52.538;13.400;2023-02-28T17:08:59;3.60;91.20
2112;DHT22;1062;52.538;13.400;2023-02-28T17:11:25;3.50;91.40
2112;DHT22;1062;52.538;13.400;2023-02-28T17:13:51;3.50;91.50
2112;DHT22;1062;52.538;13.400;2023-02-28T17:16:30;3.40;91.60
2112;DHT22;1062;52.538;13.400;2023-02-28T17:19:02;3.50;91.80
2112;DHT22;1062;52.538;13.400;2023-02-28T17:21:28;3.50;91.70
2112;DHT22;1062;52.538;13.400;2023-02-28T17:23:54;3.40;92.20
2112;DHT22;1062;52.538;13.400;2023-02-28T17:26:21;3.50;92.10
2112;DHT22;1062;52.538;13.400;2023-02-28T17:28:48;3.40;92.10
2112;DHT22;1062;52.538;13.400;2023-02-28T17:31:14;3.30;92.30
2112;DHT22;1062;52.538;13.400;2023-02-28T17:33:40;3.20;92.50
2112;DHT22;1062;52.538;13.400;2023-02-28T17:36:10;3.20;92.60
2112;DHT22;1062;52.538;13.400;2023-02-28T17:38:38;3.20;92.80
2112;DHT22;1062;52.538;13.400;2023-02-28T17:41:03;3.10;93.10
2112;DHT22;1062;52.538;13.400;2023-02-28T17:43:29;3.10;93.60
2112;DHT22;1062;52.538;13.400;2023-02-28T17:45:55;3.10;93.40
2112;DHT22;1062;52.538;13.400;2023-02-28T17:48:21;3.10;93.50
2112;DHT22;1062;52.538;13.400;2023-02-28T17:50:47;3.00;93.80
2112;DHT22;1062;52.538;13.400;2023-02-28T17:53:13;3.00;94.20
2112;DHT22;1062;52.538;13.400;2023-02-28T17:55:38;3.00;94.30
2112;DHT22;1062;52.538;13.400;2023-02-28T17:58:05;2.90;94.40
2112;DHT22;1062;52.538;13.400;2023-02-28T18:00:31;2.90;94.50
2112;DHT22;1062;52.538;13.400;2023-02-28T18:03:00;2.90;94.50
2112;DHT22;1062;52.538;13.400;2023-02-28T18:05:25;2.90;94.70
2112;DHT22;1062;52.538;13.400;2023-02-28T18:07:51;2.80;94.80
2112;DHT22;1062;52.538;13.400;2023-02-28T18:10:20;2.80;94.80
2112;DHT22;1062;52.538;13.400;2023-02-28T18:12:47;2.80;95.00
2112;DHT22;1062;52.538;13.400;2023-02-28T18:15:13;2.80;95.00
2112;DHT22;1062;52.538;13.400;2023-02-28T18:17:40;2.80;95.20
2112;DHT22;1062;52.538;13.400;2023-02-28T18:20:06;2.70;95.30
2112;DHT22;1062;52.538;13.400;2023-02-28T18:22:32;2.70;95.40
2112;DHT22;1062;52.538;13.400;2023-02-28T18:24:59;2.70;95.50
2112;DHT22;1062;52.538;13.400;2023-02-28T18:27:24;2.70;95.70
2112;DHT22;1062;52.538;13.400;2023-02-28T18:29:50;2.70;95.80